createdAt,value
2023-03-06T00:00:29.845Z,62.50
2023-03-06T00:02:57.301Z,62.50
2023-03-06T00:05:24.308Z,62.40
2023-03-06T00:07:51.261Z,62.50
2023-03-06T00:10:22.018Z,62.50
2023-03-06T00:12:51.553Z,62.50
2023-03-06T00:15:18.950Z,62.50
2023-03-06T00:17:45.799Z,62.60
2023-03-06T00:20:13.432Z,62.50
2023-03-06T00:22:40.883Z,62.60
2023-03-06T00:25:11.648Z,62.80
2023-03-06T00:27:38.616Z,62.90
2023-03-06T00:30:06.289Z,62.90
2023-03-06T00:32:34.502Z,62.90
2023-03-06T00:35:02.785Z,63.00
2023-03-06T00:37:29.642Z,63.10
2023-03-06T00:39:56.588Z,63.10
2023-03-06T00:42:23.511Z,63.00
2023-03-06T00:44:52.087Z,63.20
2023-03-06T00:47:18.974Z,63.20
2023-03-06T00:49:46.054Z,63.20
2023-03-06T00:52:13.627Z,63.60
2023-03-06T00:54:40.931Z,63.30
2023-03-06T00:57:08.292Z,63.20
2023-03-06T00:59:35.575Z,63.10
2023-03-06T01:02:03.357Z,63.20
2023-03-06T01:04:30.399Z,63.30
2023-03-06T01:06:57.375Z,63.20
2023-03-06T01:09:24.651Z,63.30
2023-03-06T01:11:54.019Z,62.80
2023-03-06T01:14:21.019Z,63.20
2023-03-06T01:16:48.421Z,63.10
2023-03-06T01:19:17.824Z,63.20
2023-03-06T01:21:45.672Z,63.30
2023-03-06T01:24:12.560Z,63.50
2023-03-06T01:26:39.439Z,63.00
2023-03-06T01:29:06.442Z,63.20
2023-03-06T01:31:33.637Z,63.30
2023-03-06T01:34:00.803Z,63.50
2023-03-06T01:36:27.701Z,63.70
2023-03-06T01:38:54.651Z,63.70
2023-03-06T01:41:21.684Z,64.00
2023-03-06T01:43:49.198Z,64.00
2023-03-06T01:46:43.425Z,64.10
2023-03-06T01:49:20.925Z,64.20
2023-03-06T01:52:06.415Z,64.10
2023-03-06T01:54:38.238Z,64.20
2023-03-06T01:57:32.507Z,64.10
2023-03-06T02:00:15.514Z,64.50
2023-03-06T02:02:47.540Z,64.30
2023-03-06T02:05:14.558Z,64.30
2023-03-06T02:07:44.019Z,64.50
2023-03-06T02:10:14.816Z,64.80
2023-03-06T02:12:43.705Z,64.90
2023-03-06T02:15:15.819Z,64.90
2023-03-06T02:20:43.890Z,65.10
2023-03-06T02:23:33.545Z,65.20
2023-03-06T02:26:01.003Z,65.30
2023-03-06T02:28:28.010Z,65.40
2023-03-06T02:30:56.720Z,65.30
2023-03-06T02:33:26.521Z,65.30
2023-03-06T02:35:55.826Z,65.30
2023-03-06T02:38:28.124Z,65.20
2023-03-06T02:40:57.958Z,65.40
2023-03-06T02:43:35.175Z,65.30
2023-03-06T02:46:02.986Z,65.40
2023-03-06T02:48:30.053Z,65.50
2023-03-06T02:50:56.990Z,66.50
2023-03-06T02:53:24.222Z,65.80
2023-03-06T02:55:51.900Z,65.70
2023-03-06T02:58:20.658Z,65.90
2023-03-06T03:00:49.276Z,65.80
2023-03-06T03:03:17.107Z,65.60
2023-03-06T03:05:44.030Z,65.50
2023-03-06T03:08:23.968Z,65.40
2023-03-06T03:10:56.877Z,65.50
2023-03-06T03:13:25.092Z,65.60
2023-03-06T03:16:04.099Z,65.50
2023-03-06T03:18:31.266Z,65.80
2023-03-06T03:20:58.534Z,65.90
2023-03-06T03:23:26.561Z,65.80
2023-03-06T03:26:05.427Z,65.70
2023-03-06T03:28:32.482Z,65.80
2023-03-06T03:31:07.224Z,65.70
2023-03-06T03:33:35.522Z,65.80
2023-03-06T03:36:04.981Z,65.90
2023-03-06T03:38:33.922Z,65.80
2023-03-06T03:41:02.006Z,66.10
2023-03-06T03:43:30.139Z,66.10
2023-03-06T03:45:58.138Z,66.10
2023-03-06T03:48:25.300Z,65.90
2023-03-06T03:50:52.242Z,66.30
2023-03-06T03:53:21.004Z,67.10
2023-03-06T03:55:49.012Z,66.30
2023-03-06T03:58:18.173Z,66.50
2023-03-06T04:00:45.680Z,66.30
2023-03-06T04:03:14.788Z,66.30
2023-03-06T04:05:44.682Z,66.40
2023-03-06T04:08:14.432Z,66.40
2023-03-06T04:10:43.925Z,67.00
2023-03-06T04:13:12.382Z,66.50
2023-03-06T04:15:43.115Z,66.60
2023-03-06T04:18:11.234Z,66.40
2023-03-06T04:20:38.914Z,66.30
2023-03-06T04:23:05.858Z,66.50
2023-03-06T04:25:33.248Z,66.60
2023-03-06T04:28:02.876Z,66.70
2023-03-06T04:30:31.120Z,66.50
2023-03-06T04:32:58.982Z,66.50
2023-03-06T04:35:27.096Z,66.50
2023-03-06T04:37:59.954Z,66.30
2023-03-06T04:40:31.616Z,66.40
2023-03-06T04:43:00.568Z,66.50
2023-03-06T04:45:28.852Z,66.40
2023-03-06T04:47:56.744Z,66.30
2023-03-06T04:50:25.762Z,66.20
2023-03-06T04:52:52.776Z,66.20
2023-03-06T04:55:19.934Z,66.40
2023-03-06T04:57:47.777Z,66.50
2023-03-06T05:00:31.445Z,66.80
2023-03-06T05:03:00.252Z,66.80
2023-03-06T05:05:27.639Z,66.80
2023-03-06T05:07:54.912Z,67.10
2023-03-06T05:10:22.504Z,67.40
2023-03-06T05:12:49.359Z,67.40
2023-03-06T05:15:16.659Z,67.50
2023-03-06T05:17:43.779Z,67.30
2023-03-06T05:20:13.047Z,67.50
2023-03-06T05:22:40.140Z,67.50
2023-03-06T05:25:07.586Z,67.50
2023-03-06T05:27:34.696Z,67.60
2023-03-06T05:30:01.580Z,67.50
2023-03-06T05:32:28.942Z,67.50
2023-03-06T05:34:56.040Z,67.40
2023-03-06T05:37:23.451Z,67.50
2023-03-06T05:39:51.433Z,67.50
2023-03-06T05:42:18.534Z,67.60
2023-03-06T05:44:45.935Z,67.50
2023-03-06T05:47:16.352Z,67.80
2023-03-06T05:49:46.712Z,67.60
2023-03-06T05:52:13.999Z,67.60
2023-03-06T05:54:40.885Z,67.50
2023-03-06T05:57:07.794Z,67.00
2023-03-06T05:59:35.959Z,67.10
2023-03-06T06:02:04.176Z,67.00
2023-03-06T06:04:31.181Z,66.90
2023-03-06T06:07:00.192Z,66.70
2023-03-06T06:09:28.504Z,66.90
2023-03-06T06:12:01.776Z,66.80
2023-03-06T06:14:29.812Z,66.80
2023-03-06T06:16:57.072Z,66.90
2023-03-06T06:19:24.303Z,67.00
2023-03-06T06:21:56.311Z,66.90
2023-03-06T06:24:25.941Z,67.10
2023-03-06T06:26:55.446Z,68.30
2023-03-06T06:29:23.826Z,69.90
2023-03-06T06:31:51.847Z,68.10
2023-03-06T06:34:19.628Z,67.90
2023-03-06T06:36:46.612Z,66.90
2023-03-06T06:39:15.905Z,67.00
2023-03-06T06:41:59.423Z,66.80
2023-03-06T06:44:29.798Z,66.90
2023-03-06T06:47:22.011Z,66.90
2023-03-06T06:49:43.666Z,66.90
2023-03-06T06:52:10.631Z,67.10
2023-03-06T06:54:37.875Z,67.20
2023-03-06T06:57:04.907Z,67.10
2023-03-06T06:59:31.861Z,67.30
2023-03-06T07:01:58.700Z,67.20
2023-03-06T07:04:25.684Z,66.80
2023-03-06T07:06:55.986Z,66.70
2023-03-06T07:09:23.105Z,66.60
2023-03-06T07:11:50.276Z,66.70
2023-03-06T07:14:17.174Z,66.80
2023-03-06T07:16:44.083Z,66.90
2023-03-06T07:19:10.918Z,67.10
2023-03-06T07:21:37.773Z,67.20
2023-03-06T07:24:04.776Z,66.90
2023-03-06T07:26:34.509Z,67.00
2023-03-06T07:29:02.463Z,68.60
2023-03-06T07:31:29.531Z,68.70
2023-03-06T07:33:56.486Z,68.10
2023-03-06T07:36:24.153Z,66.90
2023-03-06T07:38:51.086Z,66.10
2023-03-06T07:41:21.825Z,65.70
2023-03-06T07:43:50.435Z,65.80
2023-03-06T07:46:17.529Z,66.00
2023-03-06T07:48:44.840Z,66.00
2023-03-06T07:51:20.351Z,65.70
2023-03-06T07:53:48.435Z,65.80
2023-03-06T07:56:16.246Z,65.80
2023-03-06T07:58:45.074Z,65.90
2023-03-06T08:01:17.907Z,65.80
2023-03-06T08:03:47.417Z,65.80
2023-03-06T08:06:17.699Z,65.60
2023-03-06T08:08:46.487Z,65.70
2023-03-06T08:11:15.049Z,65.80
2023-03-06T08:13:42.355Z,66.20
2023-03-06T08:16:09.875Z,66.40
2023-03-06T08:18:39.551Z,67.00
2023-03-06T08:21:07.896Z,66.90
2023-03-06T08:23:35.448Z,67.10
2023-03-06T08:26:05.338Z,67.20
2023-03-06T08:28:33.107Z,67.20
2023-03-06T08:31:09.222Z,67.20
2023-03-06T08:33:36.726Z,67.20
2023-03-06T08:36:03.784Z,67.60
2023-03-06T08:38:30.790Z,67.40
2023-03-06T08:40:58.193Z,67.30
2023-03-06T08:43:25.300Z,67.30
2023-03-06T08:45:56.894Z,67.30
2023-03-06T08:48:24.886Z,67.30
2023-03-06T08:50:52.031Z,67.10
2023-03-06T08:53:19.431Z,67.20
2023-03-06T08:55:46.392Z,67.20
2023-03-06T08:58:13.490Z,67.10
2023-03-06T09:00:40.510Z,67.20
2023-03-06T09:03:07.515Z,67.30
2023-03-06T09:05:34.657Z,67.00
2023-03-06T09:08:01.544Z,67.00
2023-03-06T09:10:28.705Z,67.10
2023-03-06T09:12:55.644Z,67.30
2023-03-06T09:15:24.126Z,67.10
2023-03-06T09:17:51.892Z,67.20
2023-03-06T09:20:19.652Z,67.40
2023-03-06T09:22:46.471Z,67.00
2023-03-06T09:25:14.877Z,66.90
2023-03-06T09:27:41.823Z,66.90
2023-03-06T09:30:09.625Z,66.80
2023-03-06T09:32:36.550Z,66.60
2023-03-06T09:35:03.467Z,66.30
2023-03-06T09:37:30.369Z,66.00
2023-03-06T09:39:57.810Z,65.90
2023-03-06T09:42:25.399Z,66.10
2023-03-06T09:44:59.062Z,66.00
2023-03-06T09:47:45.218Z,66.80
2023-03-06T09:50:30.838Z,66.00
2023-03-06T09:53:15.209Z,65.50
2023-03-06T09:55:44.308Z,65.60
2023-03-06T09:58:21.987Z,65.50
2023-03-06T10:01:04.084Z,65.70
2023-03-06T10:03:48.526Z,65.40
2023-03-06T10:06:23.851Z,65.60
2023-03-06T10:09:05.916Z,65.80
2023-03-06T10:11:37.256Z,65.40
2023-03-06T10:14:37.665Z,64.70
2023-03-06T10:17:06.559Z,64.50
2023-03-06T10:19:36.615Z,64.20
2023-03-06T10:22:31.535Z,63.90
2023-03-06T10:25:30.217Z,66.60
2023-03-06T10:27:58.648Z,64.40
2023-03-06T10:30:28.324Z,63.80
2023-03-06T10:33:32.822Z,63.60
2023-03-06T10:35:59.955Z,63.20
2023-03-06T10:38:38.296Z,62.90
2023-03-06T10:41:14.715Z,62.60
2023-03-06T10:44:05.722Z,62.70
2023-03-06T10:46:35.835Z,62.80
2023-03-06T10:49:23.280Z,62.40
2023-03-06T10:51:58.094Z,62.30
2023-03-06T10:54:25.533Z,62.10
2023-03-06T10:56:52.417Z,62.10
2023-03-06T10:59:25.521Z,62.30
2023-03-06T11:01:55.614Z,62.50
2023-03-06T11:04:27.575Z,62.40
2023-03-06T11:07:15.354Z,62.70
2023-03-06T11:10:05.240Z,62.50
2023-03-06T11:12:36.768Z,62.70
2023-03-06T11:15:06.813Z,62.70
2023-03-06T11:17:37.108Z,62.50
2023-03-06T11:20:25.311Z,62.60
2023-03-06T11:23:18.948Z,61.50
2023-03-06T11:25:53.228Z,62.00
2023-03-06T11:28:31.529Z,61.00
2023-03-06T11:31:08.225Z,60.90
2023-03-06T11:34:07.482Z,60.50
2023-03-06T11:36:44.470Z,60.90
2023-03-06T11:39:22.429Z,60.60
2023-03-06T11:42:07.975Z,60.70
2023-03-06T11:45:05.110Z,60.70
2023-03-06T11:47:37.622Z,60.40
2023-03-06T11:50:19.306Z,59.90
2023-03-06T11:53:01.838Z,60.00
2023-03-06T11:55:40.885Z,60.20
2023-03-06T11:58:32.906Z,60.40
2023-03-06T12:01:04.829Z,60.50
2023-03-06T12:03:46.782Z,60.30
2023-03-06T12:06:25.809Z,59.80
2023-03-06T12:09:10.461Z,59.50
2023-03-06T12:12:13.364Z,59.30
2023-03-06T12:14:57.079Z,59.20
2023-03-06T12:17:41.871Z,59.50
2023-03-06T12:20:40.023Z,59.50
2023-03-06T12:23:36.247Z,59.30
2023-03-06T12:26:31.499Z,59.20
2023-03-06T12:28:58.324Z,59.00
2023-03-06T12:31:59.369Z,58.30
2023-03-06T12:34:45.136Z,58.50
2023-03-06T12:37:15.034Z,58.70
2023-03-06T12:39:57.347Z,58.90
2023-03-06T12:43:10.414Z,59.20
2023-03-06T12:45:38.244Z,59.00
2023-03-06T12:48:16.289Z,58.90
2023-03-06T12:50:44.533Z,59.00
2023-03-06T12:53:26.730Z,58.80
2023-03-06T12:55:54.679Z,59.10
2023-03-06T12:58:30.873Z,58.90
2023-03-06T13:01:09.284Z,58.90
2023-03-06T13:03:54.257Z,58.70
2023-03-06T13:06:50.809Z,58.10
2023-03-06T13:09:32.232Z,58.00
2023-03-06T13:12:02.104Z,58.10
2023-03-06T13:14:42.306Z,58.30
2023-03-06T13:17:25.966Z,58.50
2023-03-06T13:20:14.700Z,58.80
2023-03-06T13:22:43.577Z,59.00
2023-03-06T13:25:19.615Z,59.50
2023-03-06T13:27:52.896Z,59.80
2023-03-06T13:30:43.550Z,60.70
2023-03-06T13:33:22.813Z,61.50
2023-03-06T13:35:55.408Z,62.00
2023-03-06T13:38:57.494Z,62.20
2023-03-06T13:41:26.437Z,62.50
2023-03-06T13:43:58.801Z,62.70
2023-03-06T13:46:35.267Z,63.20
2023-03-06T13:49:19.379Z,63.60
2023-03-06T13:51:49.389Z,64.40
2023-03-06T13:54:25.420Z,64.80
2023-03-06T13:56:52.260Z,65.20
2023-03-06T14:00:08.193Z,66.20
2023-03-06T14:03:17.922Z,67.20
2023-03-06T14:05:46.987Z,68.00
2023-03-06T14:08:40.564Z,68.40
2023-03-06T14:11:22.048Z,68.80
2023-03-06T14:13:54.324Z,69.60
2023-03-06T14:16:23.864Z,70.20
2023-03-06T14:18:58.499Z,70.90
2023-03-06T14:21:39.550Z,71.30
2023-03-06T14:24:06.598Z,71.40
2023-03-06T14:26:42.242Z,71.50
2023-03-06T14:29:26.893Z,71.70
2023-03-06T14:31:58.610Z,71.80
2023-03-06T14:34:28.703Z,72.00
2023-03-06T14:36:59.564Z,71.40
2023-03-06T14:39:38.989Z,71.20
2023-03-06T14:42:15.974Z,71.20
2023-03-06T14:44:43.065Z,74.10
2023-03-06T14:47:21.984Z,73.70
2023-03-06T14:50:08.913Z,73.90
2023-03-06T14:52:36.333Z,72.40
2023-03-06T14:55:03.540Z,71.10
2023-03-06T14:57:30.490Z,69.90
2023-03-06T14:59:59.596Z,68.60
2023-03-06T15:02:29.920Z,67.80
2023-03-06T15:05:04.761Z,67.10
2023-03-06T15:07:33.248Z,67.60
2023-03-06T15:10:01.165Z,66.90
2023-03-06T15:12:30.749Z,66.50
2023-03-06T15:15:09.685Z,65.50
2023-03-06T15:17:41.551Z,65.60
2023-03-06T15:20:44.043Z,65.40
2023-03-06T15:23:39.024Z,65.60
2023-03-06T15:26:33.975Z,66.00
2023-03-06T15:29:09.069Z,66.50
2023-03-06T15:31:42.458Z,67.00
2023-03-06T15:34:09.357Z,67.30
2023-03-06T15:36:56.170Z,67.60
2023-03-06T15:39:31.781Z,67.80
2023-03-06T15:42:20.214Z,68.00
2023-03-06T15:44:55.808Z,68.50
2023-03-06T15:47:23.798Z,68.60
2023-03-06T15:49:53.145Z,68.80
2023-03-06T15:52:21.966Z,68.80
2023-03-06T15:54:49.423Z,68.90
2023-03-06T15:57:23.293Z,69.10
2023-03-06T15:59:51.332Z,69.60
2023-03-06T16:02:20.532Z,70.30
2023-03-06T16:04:48.365Z,70.80
2023-03-06T16:07:15.662Z,71.10
2023-03-06T16:09:43.404Z,71.30
2023-03-06T16:12:19.204Z,71.40
2023-03-06T16:14:47.638Z,71.60
2023-03-06T16:17:15.927Z,71.90
2023-03-06T16:19:43.350Z,72.00
2023-03-06T16:22:10.481Z,71.90
2023-03-06T16:24:37.569Z,71.80
2023-03-06T16:27:04.710Z,71.90
2023-03-06T16:29:31.653Z,72.30
2023-03-06T16:32:01.589Z,72.00
2023-03-06T16:34:28.836Z,72.10
2023-03-06T16:36:55.868Z,72.40
2023-03-06T16:39:23.837Z,72.60
2023-03-06T16:41:51.160Z,72.60
2023-03-06T16:44:18.293Z,72.70
2023-03-06T16:46:48.060Z,72.80
2023-03-06T16:49:17.459Z,72.80
2023-03-06T16:51:45.238Z,73.10
2023-03-06T16:54:12.992Z,73.00
2023-03-06T16:56:39.835Z,73.10
2023-03-06T16:59:06.842Z,73.20
2023-03-06T17:01:33.824Z,73.20
2023-03-06T17:04:00.924Z,73.30
2023-03-06T17:06:28.319Z,73.50
2023-03-06T17:08:58.260Z,73.80
2023-03-06T17:11:25.354Z,74.10
2023-03-06T17:13:52.200Z,74.20
2023-03-06T17:16:19.185Z,74.20
2023-03-06T17:18:46.455Z,74.10
2023-03-06T17:21:17.407Z,74.20
2023-03-06T17:23:44.961Z,74.00
2023-03-06T17:26:20.130Z,73.90
2023-03-06T17:28:47.670Z,73.90
2023-03-06T17:31:19.261Z,73.90
2023-03-06T17:33:48.733Z,74.00
2023-03-06T17:36:16.400Z,73.80
2023-03-06T17:38:43.862Z,73.90
2023-03-06T17:41:11.893Z,73.80
2023-03-06T17:43:39.587Z,73.70
2023-03-06T17:46:10.897Z,73.80
2023-03-06T17:48:38.816Z,73.90
2023-03-06T17:51:06.204Z,73.90
2023-03-06T17:53:33.230Z,73.90
2023-03-06T17:56:00.165Z,73.90
2023-03-06T17:58:27.481Z,73.60
2023-03-06T18:00:54.422Z,73.60
2023-03-06T18:03:21.445Z,73.60
2023-03-06T18:05:57.898Z,73.50
2023-03-06T18:08:24.795Z,73.50
2023-03-06T18:10:51.772Z,73.40
2023-03-06T18:13:18.672Z,73.30
2023-03-06T18:15:45.671Z,73.30
2023-03-06T18:18:12.564Z,74.30
2023-03-06T18:20:42.694Z,73.30
2023-03-06T18:23:09.693Z,73.40
2023-03-06T18:25:36.602Z,73.30
2023-03-06T18:28:03.559Z,73.30
2023-03-06T18:30:30.532Z,73.20
2023-03-06T18:32:57.802Z,73.90
2023-03-06T18:35:24.638Z,73.90
2023-03-06T18:37:52.261Z,73.90
2023-03-06T18:40:19.421Z,73.70
2023-03-06T18:42:46.771Z,73.60
2023-03-06T18:45:14.239Z,73.80
2023-03-06T18:47:41.463Z,73.80
2023-03-06T18:50:08.994Z,74.10
2023-03-06T18:52:36.116Z,74.00
2023-03-06T18:55:03.014Z,73.90
2023-03-06T18:57:30.477Z,74.00
2023-03-06T18:59:57.477Z,74.00
2023-03-06T19:02:24.443Z,74.10
2023-03-06T19:04:52.794Z,74.30
2023-03-06T19:07:20.024Z,74.30
2023-03-06T19:09:49.033Z,74.30
2023-03-06T19:12:17.394Z,74.50
2023-03-06T19:14:45.066Z,74.60
2023-03-06T19:17:12.239Z,74.70
2023-03-06T19:19:39.141Z,74.70
2023-03-06T19:22:06.108Z,74.70
2023-03-06T19:24:33.008Z,74.70
2023-03-06T19:26:59.959Z,74.60
2023-03-06T19:29:27.122Z,74.70
2023-03-06T19:31:57.194Z,74.70
2023-03-06T19:34:24.428Z,74.80
2023-03-06T19:36:51.799Z,74.90
2023-03-06T19:39:18.700Z,75.10
2023-03-06T19:41:47.527Z,75.10
2023-03-06T19:44:16.258Z,75.20
2023-03-06T19:46:43.560Z,75.30
2023-03-06T19:49:16.909Z,75.30
2023-03-06T19:51:44.442Z,75.30
2023-03-06T19:54:12.598Z,75.40
2023-03-06T19:56:40.029Z,75.60
2023-03-06T19:59:06.906Z,75.40
2023-03-06T20:01:34.377Z,75.50
2023-03-06T20:04:01.584Z,75.60
2023-03-06T20:06:31.237Z,75.70
2023-03-06T20:08:58.211Z,76.10
2023-03-06T20:11:27.197Z,76.10
2023-03-06T20:13:54.349Z,75.90
2023-03-06T20:16:21.316Z,75.70
2023-03-06T20:18:48.364Z,75.40
2023-03-06T20:21:15.549Z,75.30
2023-03-06T20:23:43.240Z,75.10
2023-03-06T20:26:12.483Z,74.90
2023-03-06T20:28:41.023Z,74.90
2023-03-06T20:31:08.018Z,74.90
2023-03-06T20:33:35.272Z,75.20
2023-03-06T20:36:02.246Z,75.20
2023-03-06T20:38:29.451Z,75.30
2023-03-06T20:40:57.961Z,75.30
2023-03-06T20:43:25.044Z,75.40
2023-03-06T20:46:04.212Z,75.60
2023-03-06T20:48:31.133Z,75.90
2023-03-06T20:51:07.118Z,75.90
2023-03-06T20:53:35.414Z,75.90
2023-03-06T20:56:02.383Z,75.90
2023-03-06T20:58:31.608Z,76.00
2023-03-06T21:01:01.397Z,75.90
2023-03-06T21:03:29.669Z,75.80
2023-03-06T21:05:56.794Z,75.80
2023-03-06T21:08:23.880Z,75.90
2023-03-06T21:10:51.409Z,75.70
2023-03-06T21:13:18.408Z,75.70
2023-03-06T21:15:47.497Z,75.80
2023-03-06T21:18:14.735Z,75.80
2023-03-06T21:20:42.163Z,75.80
2023-03-06T21:23:09.494Z,76.10
2023-03-06T21:25:36.549Z,76.20
2023-03-06T21:28:03.595Z,76.30
2023-03-06T21:30:30.501Z,76.30
2023-03-06T21:32:57.440Z,76.40
2023-03-06T21:35:24.316Z,76.70
2023-03-06T21:37:51.374Z,76.60
2023-03-06T21:40:18.516Z,76.80
2023-03-06T21:42:45.670Z,77.30
2023-03-06T21:45:12.748Z,77.80
2023-03-06T21:47:40.955Z,78.30
2023-03-06T21:50:10.931Z,78.70
2023-03-06T21:52:38.152Z,79.20
2023-03-06T21:55:06.178Z,79.50
2023-03-06T21:57:33.210Z,79.50
2023-03-06T22:00:00.132Z,79.70
2023-03-06T22:02:27.164Z,79.90
2023-03-06T22:04:54.202Z,80.30
2023-03-06T22:07:21.273Z,80.50
2023-03-06T22:09:48.239Z,80.50
2023-03-06T22:12:15.231Z,80.50
2023-03-06T22:14:43.667Z,80.90
2023-03-06T22:17:10.650Z,80.90
2023-03-06T22:19:37.685Z,80.90
2023-03-06T22:22:04.969Z,81.00
2023-03-06T22:24:32.036Z,81.00
2023-03-06T22:26:58.993Z,81.00
2023-03-06T22:29:26.031Z,81.00
2023-03-06T22:31:53.104Z,81.20
2023-03-06T22:34:20.083Z,81.40
2023-03-06T22:36:46.946Z,81.40
2023-03-06T22:39:14.389Z,81.20
2023-03-06T22:41:41.371Z,81.10
2023-03-06T22:44:10.169Z,81.80
2023-03-06T22:46:38.512Z,81.50
2023-03-06T22:49:05.435Z,81.70
2023-03-06T22:51:32.433Z,81.90
2023-03-06T22:53:59.331Z,81.90
2023-03-06T22:56:26.344Z,82.00
2023-03-06T22:58:53.558Z,82.10
2023-03-06T23:01:23.290Z,82.30
2023-03-06T23:03:52.860Z,82.40
2023-03-06T23:06:26.354Z,82.50
2023-03-06T23:09:15.871Z,82.50
2023-03-06T23:12:01.415Z,82.50
2023-03-06T23:14:49.650Z,82.50
2023-03-06T23:17:35.459Z,82.40
2023-03-06T23:20:21.533Z,82.10
2023-03-06T23:23:07.132Z,82.40
2023-03-06T23:25:43.940Z,82.50
2023-03-06T23:28:11.565Z,82.50
2023-03-06T23:30:39.587Z,82.80
2023-03-06T23:33:07.138Z,83.10
2023-03-06T23:35:35.321Z,83.30
2023-03-06T23:38:02.645Z,83.60
2023-03-06T23:40:33.535Z,83.60
2023-03-06T23:43:00.496Z,83.80
2023-03-06T23:45:27.552Z,84.00
2023-03-06T23:47:54.510Z,84.00
2023-03-06T23:50:23.053Z,83.80
2023-03-06T23:52:54.319Z,83.90
2023-03-06T23:55:21.284Z,84.40
2023-03-06T23:57:48.158Z,84.10
